Aviation Digital Data Service (ADDS)

Output produced by METARs form (1013 UTC 25 October 2020)
found at http://aviationweather.gov/metar/data/
 
KSNS 250953Z 30005KT 10SM OVC014 16/13 A2994 RMK AO2 SLP147 T01560128
KSNS 250521Z 2506/2606 VRB05KT P6SM BKN020 
     FM250800 VRB03KT P6SM OVC012 
     FM251700 VRB05KT P6SM BKN020 
     FM252000 31010KT P6SM SCT020 
     FM260300 34005KT P6SM BKN012
       
KMRY 250954Z AUTO 00000KT 10SM OVC007 14/13 A2995 RMK AO2 SLP151 T01440128
KMRY 250521Z 2506/2606 VRB04KT P6SM OVC012 
     FM251100 00000KT 6SM BR OVC008 
     FM251600 VRB03KT P6SM OVC012 
     FM252200 31007KT P6SM SCT015 
     FM260200 28005KT P6SM BKN010 
     FM260500 13004KT P6SM FEW010
       
KSJC 250953Z AUTO 15005KT 10SM OVC027 15/11 A2992 RMK AO2 SLP130 T01500111 $
KSJC 250521Z 2506/2606 VRB05KT P6SM FEW015 
     FM250900 VRB04KT P6SM BKN012 
     FM251800 VRB03KT P6SM SCT015 
     FM252000 31010KT P6SM SKC 
     FM260400 32010KT P6SM SKC WS020/03030KT
       
KSFO 250956Z 00000KT 10SM FEW012 OVC020 14/11 A2992 RMK AO2 SLP132 T01440111
KSFO 250901Z 2509/2612 VRB06KT P6SM FEW010 OVC015 
     FM251900 VRB03KT P6SM SCT015 
     FM252200 30010KT P6SM FEW015 
     FM260300 30008KT P6SM SKC WS020/03040KT 
     FM260600 01015KT P6SM SKC WS020/03040KT
       
KLVK 250953Z AUTO 29004KT 8SM OVC025 12/11 A2991 RMK AO2 SLP126 T01170106 $
KLVK 250521Z 2506/2606 31005KT P6SM SCT012 
     FM250900 VRB04KT P6SM BKN012 
     FM251800 VRB03KT P6SM SCT015 
     FM252000 30010KT P6SM SKC 
     FM260200 02012KT P6SM SKC WS020/03030KT
       
KMCE 250953Z AUTO 30003KT 10SM CLR 13/09 A2990 RMK AO2 SLP122 T01280094
KMCE 250524Z 2506/2606 VRB05KT P6SM FEW250 
     FM251700 33009KT P6SM SCT180